Time;durP1;ratioP1;P1;durP2;ratioP2;P2;SDS_P1;SDS_P2;PMS_P1;PMS_P2;Temp;Humidity;BMP_temperature;BMP_pressure;BME280_temperature;BME280_humidity;BME280_pressure;Samples;Min_cycle;Max_cycle;Signal;HPM_P1;HPM_P2
2022/12/27 00:02:03;;;;;;;6.90;4.00;;;;;;;;;;5050397;28;20028;-77
2022/12/27 00:04:29;;;;;;;7.10;4.15;;;;;;;;;;5049462;28;20055;-77
2022/12/27 00:06:56;;;;;;;8.82;4.55;;;;;;;;;;5042847;28;20029;-77
2022/12/27 00:09:22;;;;;;;6.80;4.22;;;;;;;;;;5053943;28;20545;-78
2022/12/27 00:11:48;;;;;;;6.90;3.70;;;;;;;;;;5052883;28;20479;-77
2022/12/27 00:14:14;;;;;;;5.63;4.30;;;;;;;;;;5052154;28;20290;-77
2022/12/27 00:16:40;;;;;;;4.10;3.35;;;;;;;;;;5044250;28;20026;-77
2022/12/27 00:19:06;;;;;;;5.80;3.85;;;;;;;;;;5052085;28;20456;-77
2022/12/27 00:21:33;;;;;;;4.82;3.85;;;;;;;;;;5050499;28;20021;-76
2022/12/27 00:23:59;;;;;;;6.15;3.67;;;;;;;;;;5042078;28;20033;-77
2022/12/27 00:26:30;;;;;;;7.63;4.00;;;;;;;;;;5048840;28;20045;-76
2022/12/27 00:28:56;;;;;;;8.68;4.50;;;;;;;;;;5050867;28;20029;-77
2022/12/27 00:31:22;;;;;;;7.28;4.97;;;;;;;;;;5054962;28;20043;-76
2022/12/27 00:33:49;;;;;;;7.93;4.15;;;;;;;;;;5052334;28;20420;-76
2022/12/27 00:36:17;;;;;;;6.55;3.72;;;;;;;;;;5052094;28;20094;-76
2022/12/27 00:38:43;;;;;;;9.20;3.83;;;;;;;;;;5040603;28;20059;-76
2022/12/27 00:41:09;;;;;;;5.88;3.83;;;;;;;;;;5050253;28;20032;-78
2022/12/27 00:43:36;;;;;;;12.25;5.03;;;;;;;;;;5042999;28;20017;-76
2022/12/27 00:46:02;;;;;;;9.25;4.18;;;;;;;;;;5041761;28;20115;-77
2022/12/27 00:48:28;;;;;;;8.40;5.10;;;;;;;;;;5043406;28;20028;-77
2022/12/27 00:51:14;;;;;;;12.45;5.35;;;;;;;;;;5037801;28;20094;-77
2022/12/27 00:53:40;;;;;;;11.43;5.47;;;;;;;;;;5039423;28;20025;-76
2022/12/27 00:56:12;;;;;;;7.95;4.38;;;;;;;;;;5044293;28;20037;-77
2022/12/27 00:58:38;;;;;;;9.85;4.85;;;;;;;;;;5040735;28;20036;-77
2022/12/27 01:01:13;;;;;;;11.85;5.05;;;;;;;;;;5037734;28;20110;-77
2022/12/27 01:03:40;;;;;;;11.52;4.57;;;;;;;;;;5055689;28;20106;-78
2022/12/27 01:06:10;;;;;;;8.02;4.72;;;;;;;;;;5048596;28;20032;-78
2022/12/27 01:08:36;;;;;;;5.72;4.82;;;;;;;;;;5046768;28;20032;-77
2022/12/27 01:11:02;;;;;;;8.88;4.05;;;;;;;;;;5049087;28;20029;-78
2022/12/27 01:13:28;;;;;;;6.45;3.63;;;;;;;;;;5046500;28;20187;-77
2022/12/27 01:15:55;;;;;;;11.88;4.90;;;;;;;;;;5050359;28;20371;-77
2022/12/27 01:18:21;;;;;;;8.95;3.78;;;;;;;;;;5037641;28;20073;-76
2022/12/27 01:20:47;;;;;;;9.95;4.10;;;;;;;;;;5042171;28;20081;-77
2022/12/27 01:23:13;;;;;;;6.70;3.35;;;;;;;;;;5035060;28;20036;-77
2022/12/27 01:25:39;;;;;;;5.20;3.20;;;;;;;;;;5049002;28;20623;-77
2022/12/27 01:28:05;;;;;;;5.65;3.92;;;;;;;;;;5047298;28;20379;-77
2022/12/27 01:30:32;;;;;;;8.07;4.18;;;;;;;;;;5034768;28;20034;-76
2022/12/27 01:32:58;;;;;;;9.75;3.90;;;;;;;;;;5047290;28;20032;-77
2022/12/27 01:35:24;;;;;;;5.47;3.60;;;;;;;;;;5049945;28;20051;-77
2022/12/27 01:37:51;;;;;;;5.82;4.70;;;;;;;;;;5045902;28;20030;-77
2022/12/27 01:40:17;;;;;;;5.88;3.50;;;;;;;;;;5047325;28;20030;-77
2022/12/27 01:42:52;;;;;;;6.07;4.20;;;;;;;;;;5046631;28;20079;-78
2022/12/27 01:45:36;;;;;;;5.47;3.28;;;;;;;;;;5045505;28;20025;-77
2022/12/27 01:48:22;;;;;;;5.45;3.28;;;;;;;;;;5050271;28;20398;-76
2022/12/27 01:50:54;;;;;;;6.57;2.90;;;;;;;;;;5038989;28;20071;-77
2022/12/27 01:53:25;;;;;;;9.50;4.97;;;;;;;;;;5054266;28;20092;-77
2022/12/27 01:55:53;;;;;;;5.47;3.35;;;;;;;;;;5048164;28;20099;-76
2022/12/27 01:58:19;;;;;;;10.38;5.70;;;;;;;;;;5045195;28;20029;-78
2022/12/27 02:00:47;;;;;;;6.07;3.30;;;;;;;;;;5047931;28;20053;-76
2022/12/27 02:03:15;;;;;;;5.55;2.40;;;;;;;;;;5043276;28;20032;-80
2022/12/27 02:05:42;;;;;;;5.25;2.45;;;;;;;;;;5045210;28;20033;-77
2022/12/27 02:08:18;;;;;;;6.20;2.45;;;;;;;;;;5047938;28;20151;-77
2022/12/27 02:10:45;;;;;;;4.35;2.60;;;;;;;;;;5039302;28;20051;-77
2022/12/27 02:13:11;;;;;;;6.55;2.90;;;;;;;;;;5043334;28;20048;-78
2022/12/27 02:15:37;;;;;;;5.45;2.63;;;;;;;;;;5049086;28;20025;-77
2022/12/27 02:18:07;;;;;;;6.45;2.90;;;;;;;;;;5047575;28;20557;-78
2022/12/27 02:20:52;;;;;;;5.03;2.58;;;;;;;;;;5052552;28;20032;-77
2022/12/27 02:26:20;;;;;;;2.85;2.45;;;;;;;;;;5030207;28;20044;-78
2022/12/27 02:28:56;;;;;;;7.47;2.75;;;;;;;;;;5046725;28;20109;-77
2022/12/27 02:31:34;;;;;;;4.57;2.47;;;;;;;;;;5045228;28;20032;-77
2022/12/27 02:34:02;;;;;;;2.95;2.35;;;;;;;;;;5039854;28;20029;-77
2022/12/27 02:36:31;;;;;;;3.05;2.45;;;;;;;;;;5036447;28;20013;-77
2022/12/27 02:38:59;;;;;;;8.65;2.20;;;;;;;;;;5034303;28;20028;-78
2022/12/27 02:55:37;;;;;;;3.13;2.55;;;;;;;;;;5038653;28;20106;-77
2022/12/27 02:58:22;;;;;;;2.28;1.83;;;;;;;;;;5040541;28;20090;-77
2022/12/27 03:03:47;;;;;;;3.85;1.77;;;;;;;;;;5041109;28;20036;-77
2022/12/27 03:06:41;;;;;;;3.45;1.70;;;;;;;;;;5032135;28;20025;-77
2022/12/27 03:15:53;;;;;;;3.50;1.60;;;;;;;;;;5044845;28;20109;-76
2022/12/27 03:17:34;;;;;;;3.92;1.85;;;;;;;;;;5033940;28;20408;-78
2022/12/27 03:25:35;;;;;;;3.70;2.05;;;;;;;;;;5040618;28;20470;-77
2022/12/27 03:34:03;;;;;;;5.20;1.70;;;;;;;;;;5033839;28;20422;-77
2022/12/27 03:39:21;;;;;;;1.60;1.50;;;;;;;;;;5041172;28;20155;-78
2022/12/27 03:44:35;;;;;;;3.45;1.55;;;;;;;;;;5054537;28;20062;-77
2022/12/27 03:47:09;;;;;;;3.30;2.17;;;;;;;;;;5049346;28;20025;-77
2022/12/27 03:50:01;;;;;;;3.72;1.60;;;;;;;;;;5037593;28;20028;-77
2022/12/27 03:52:33;;;;;;;1.95;1.60;;;;;;;;;;5042408;28;20111;-77
2022/12/27 03:55:00;;;;;;;3.13;1.80;;;;;;;;;;5043904;28;20025;-77
2022/12/27 03:57:27;;;;;;;4.55;1.67;;;;;;;;;;5046978;28;20459;-77
2022/12/27 03:59:53;;;;;;;2.13;1.80;;;;;;;;;;5041757;28;20065;-77
2022/12/27 04:02:19;;;;;;;2.35;1.60;;;;;;;;;;5030246;28;20387;-77
2022/12/27 04:04:45;;;;;;;1.55;1.45;;;;;;;;;;5046378;28;20028;-78
2022/12/27 04:07:15;;;;;;;2.30;1.88;;;;;;;;;;5042908;28;20057;-77
2022/12/27 04:34:42;;;;;;;6.70;1.90;;;;;;;;;;5045674;28;20036;-77
2022/12/27 04:37:09;;;;;;;2.63;2.08;;;;;;;;;;5046906;28;20025;-77
2022/12/27 04:39:35;;;;;;;3.05;1.90;;;;;;;;;;5049733;28;20444;-76
2022/12/27 04:56:00;;;;;;;4.28;1.80;;;;;;;;;;5041006;28;20043;-77
2022/12/27 04:58:27;;;;;;;6.35;2.00;;;;;;;;;;5049467;28;20109;-77
2022/12/27 05:03:39;;;;;;;6.20;1.80;;;;;;;;;;5041913;28;20036;-77
2022/12/27 05:06:05;;;;;;;3.90;1.73;;;;;;;;;;5055036;28;20024;-77
2022/12/27 05:14:01;;;;;;;2.35;1.60;;;;;;;;;;5035661;28;20044;-76
2022/12/27 05:16:31;;;;;;;2.45;1.70;;;;;;;;;;5036359;28;20025;-77
2022/12/27 05:18:58;;;;;;;2.97;1.90;;;;;;;;;;5048846;28;20025;-76
2022/12/27 05:21:24;;;;;;;4.18;1.70;;;;;;;;;;5047217;28;20025;-77
2022/12/27 05:26:36;;;;;;;5.18;1.85;;;;;;;;;;5035166;28;20091;-77
2022/12/27 05:29:02;;;;;;;5.55;2.30;;;;;;;;;;5041663;28;20082;-76
2022/12/27 05:31:28;;;;;;;2.70;1.95;;;;;;;;;;5046017;28;20026;-77
2022/12/27 05:33:55;;;;;;;5.90;1.88;;;;;;;;;;5043224;28;20558;-77
2022/12/27 05:36:21;;;;;;;5.25;2.28;;;;;;;;;;5047304;28;20048;-77
2022/12/27 05:38:47;;;;;;;1.88;1.48;;;;;;;;;;5048511;28;20029;-75
2022/12/27 05:41:14;;;;;;;4.53;1.88;;;;;;;;;;5047220;28;20068;-76
2022/12/27 05:43:40;;;;;;;2.60;1.90;;;;;;;;;;5043327;28;20076;-77
2022/12/27 05:46:10;;;;;;;5.53;2.78;;;;;;;;;;5048238;28;20584;-77
2022/12/27 05:48:36;;;;;;;7.53;2.13;;;;;;;;;;5033926;28;20028;-77
2022/12/27 05:51:07;;;;;;;2.80;1.98;;;;;;;;;;5035251;28;20109;-77
2022/12/27 05:53:33;;;;;;;5.85;1.80;;;;;;;;;;5046656;28;20021;-77
2022/12/27 05:55:59;;;;;;;6.32;2.45;;;;;;;;;;5047287;28;20029;-77
2022/12/27 05:58:26;;;;;;;4.68;2.40;;;;;;;;;;5046935;28;20048;-77
2022/12/27 06:00:52;;;;;;;8.18;2.47;;;;;;;;;;5049580;28;20119;-75
2022/12/27 06:03:18;;;;;;;8.23;2.17;;;;;;;;;;5039609;28;20067;-77
2022/12/27 06:05:44;;;;;;;2.83;2.10;;;;;;;;;;5048616;28;20083;-78
2022/12/27 06:08:11;;;;;;;4.30;1.70;;;;;;;;;;5040743;28;20531;-77
2022/12/27 06:10:37;;;;;;;7.03;3.10;;;;;;;;;;5045817;28;20048;-76
2022/12/27 06:13:04;;;;;;;8.10;2.22;;;;;;;;;;5037183;28;20025;-77
2022/12/27 06:15:30;;;;;;;8.70;2.00;;;;;;;;;;5051186;28;20471;-77
2022/12/27 06:17:57;;;;;;;7.53;2.30;;;;;;;;;;5045784;28;20032;-77
2022/12/27 06:20:23;;;;;;;5.47;1.77;;;;;;;;;;5045181;28;20032;-77
2022/12/27 06:22:49;;;;;;;5.88;2.95;;;;;;;;;;5045039;28;20037;-78
2022/12/27 06:25:15;;;;;;;6.70;1.92;;;;;;;;;;5052475;28;20021;-78
2022/12/27 06:27:42;;;;;;;7.05;2.90;;;;;;;;;;5037134;28;20052;-76
2022/12/27 06:30:11;;;;;;;4.18;2.10;;;;;;;;;;5067704;28;20035;-76
2022/12/27 06:32:37;;;;;;;6.13;2.35;;;;;;;;;;5040743;28;20032;-77
2022/12/27 06:35:03;;;;;;;7.40;2.00;;;;;;;;;;5047326;28;20053;-77
2022/12/27 06:37:30;;;;;;;3.47;2.00;;;;;;;;;;5045661;28;20018;-77
2022/12/27 06:39:56;;;;;;;9.93;2.28;;;;;;;;;;5035766;28;20043;-77
2022/12/27 06:42:22;;;;;;;10.80;2.83;;;;;;;;;;5044106;28;20033;-77
2022/12/27 06:44:48;;;;;;;13.13;2.70;;;;;;;;;;5040851;28;20021;-76
2022/12/27 06:47:14;;;;;;;9.45;3.15;;;;;;;;;;5034752;28;20494;-77
2022/12/27 06:49:40;;;;;;;2.83;1.88;;;;;;;;;;5031519;28;20395;-78
2022/12/27 06:52:06;;;;;;;4.80;2.22;;;;;;;;;;5039056;28;20039;-77
2022/12/27 06:54:32;;;;;;;9.27;2.20;;;;;;;;;;5028566;28;20045;-77
2022/12/27 06:56:58;;;;;;;8.60;2.25;;;;;;;;;;5033911;28;20593;-77
2022/12/27 06:59:24;;;;;;;4.93;2.28;;;;;;;;;;5044998;28;20036;-77
2022/12/27 07:01:50;;;;;;;5.40;2.08;;;;;;;;;;5041136;28;20028;-77
2022/12/27 07:04:16;;;;;;;11.98;3.17;;;;;;;;;;5043483;28;20475;-77
2022/12/27 07:06:42;;;;;;;10.50;3.92;;;;;;;;;;5040695;28;20653;-77
2022/12/27 07:09:08;;;;;;;3.03;1.77;;;;;;;;;;5035892;28;20418;-77
2022/12/27 07:11:35;;;;;;;7.60;2.75;;;;;;;;;;5040038;28;20376;-78
2022/12/27 07:14:02;;;;;;;3.33;1.73;;;;;;;;;;5038894;28;20039;-77
2022/12/27 07:16:29;;;;;;;6.47;2.50;;;;;;;;;;5042567;28;20467;-77
2022/12/27 07:18:55;;;;;;;3.42;2.05;;;;;;;;;;5040454;28;20045;-77
2022/12/27 07:21:23;;;;;;;5.32;2.55;;;;;;;;;;5040910;28;20108;-78
2022/12/27 07:23:49;;;;;;;7.50;2.67;;;;;;;;;;5040922;28;20052;-78
2022/12/27 07:26:17;;;;;;;8.10;2.50;;;;;;;;;;5039732;28;20487;-77
2022/12/27 07:28:43;;;;;;;7.97;3.03;;;;;;;;;;5035312;28;20112;-77
2022/12/27 07:31:14;;;;;;;11.23;2.78;;;;;;;;;;5042014;28;20018;-77
2022/12/27 07:33:40;;;;;;;6.43;2.53;;;;;;;;;;5038028;28;20026;-76
2022/12/27 07:36:07;;;;;;;5.35;2.20;;;;;;;;;;5039601;28;20059;-77
2022/12/27 07:38:33;;;;;;;3.80;2.22;;;;;;;;;;5035959;28;20036;-77
2022/12/27 07:41:00;;;;;;;7.32;2.85;;;;;;;;;;5047157;28;20025;-78
2022/12/27 07:43:26;;;;;;;8.45;2.22;;;;;;;;;;5044214;28;20033;-77
2022/12/27 07:45:52;;;;;;;12.02;2.55;;;;;;;;;;5039144;28;20033;-77
2022/12/27 07:48:18;;;;;;;9.18;1.90;;;;;;;;;;5054718;28;20183;-78
2022/12/27 07:50:53;;;;;;;8.95;3.08;;;;;;;;;;5047300;28;20041;-76
2022/12/27 07:53:19;;;;;;;3.80;2.13;;;;;;;;;;5043740;28;20024;-78
2022/12/27 07:55:45;;;;;;;4.60;2.50;;;;;;;;;;5045212;28;20028;-77
2022/12/27 07:58:12;;;;;;;2.72;1.83;;;;;;;;;;5047490;28;20484;-78
2022/12/27 08:00:38;;;;;;;5.13;2.05;;;;;;;;;;5047708;28;21272;-78
2022/12/27 08:03:04;;;;;;;6.13;1.80;;;;;;;;;;5048951;28;20112;-78
2022/12/27 08:05:30;;;;;;;6.60;1.92;;;;;;;;;;5042991;28;20017;-77
2022/12/27 08:08:00;;;;;;;4.00;2.78;;;;;;;;;;5039447;28;20035;-79
2022/12/27 08:10:26;;;;;;;3.50;1.70;;;;;;;;;;5038581;28;20022;-77
2022/12/27 08:12:52;;;;;;;6.78;2.67;;;;;;;;;;5041781;28;20083;-77
2022/12/27 08:15:18;;;;;;;4.72;2.58;;;;;;;;;;5046919;28;20475;-77
2022/12/27 08:17:44;;;;;;;2.03;1.83;;;;;;;;;;5043476;28;20029;-77
2022/12/27 08:20:13;;;;;;;4.00;1.70;;;;;;;;;;5048346;28;20221;-77
2022/12/27 08:22:39;;;;;;;1.83;1.73;;;;;;;;;;5048230;28;20498;-78
2022/12/27 08:25:06;;;;;;;2.88;1.40;;;;;;;;;;5048163;28;20040;-78
2022/12/27 08:27:32;;;;;;;2.63;1.67;;;;;;;;;;5037253;28;20045;-78
2022/12/27 08:29:58;;;;;;;4.20;2.42;;;;;;;;;;5043887;28;20029;-78
2022/12/27 08:32:24;;;;;;;3.58;1.35;;;;;;;;;;5040487;28;20079;-78
2022/12/27 08:34:50;;;;;;;5.55;1.40;;;;;;;;;;5046127;28;20025;-78
2022/12/27 08:37:16;;;;;;;3.92;2.10;;;;;;;;;;5043222;28;20072;-78
2022/12/27 08:39:42;;;;;;;2.25;1.50;;;;;;;;;;5050078;28;20481;-78
2022/12/27 08:42:11;;;;;;;1.60;1.50;;;;;;;;;;5048779;28;20033;-78
2022/12/27 08:44:37;;;;;;;3.80;2.65;;;;;;;;;;5049273;28;20024;-78
2022/12/27 08:47:04;;;;;;;2.08;1.60;;;;;;;;;;5049248;28;20056;-78
2022/12/27 08:49:30;;;;;;;1.83;1.73;;;;;;;;;;5049224;28;20047;-78
2022/12/27 08:51:56;;;;;;;3.20;1.52;;;;;;;;;;5044362;28;20558;-78
2022/12/27 08:54:22;;;;;;;1.50;1.40;;;;;;;;;;5037501;28;20060;-78
2022/12/27 08:56:49;;;;;;;1.67;1.58;;;;;;;;;;5048570;28;20062;-77
2022/12/27 08:59:16;;;;;;;3.65;1.42;;;;;;;;;;5048267;28;20025;-78
2022/12/27 09:01:42;;;;;;;2.33;1.48;;;;;;;;;;5039119;28;20042;-78
2022/12/27 09:04:08;;;;;;;1.15;1.15;;;;;;;;;;5047373;28;20041;-77
2022/12/27 09:06:34;;;;;;;1.08;1.08;;;;;;;;;;5048147;28;20025;-78
2022/12/27 09:09:00;;;;;;;1.55;1.25;;;;;;;;;;5050821;28;20470;-78
2022/12/27 09:11:27;;;;;;;1.73;1.48;;;;;;;;;;5047958;28;20028;-78
2022/12/27 09:13:55;;;;;;;2.78;1.73;;;;;;;;;;5045832;28;20029;-77
2022/12/27 09:16:23;;;;;;;1.70;1.60;;;;;;;;;;5043627;28;20026;-78
2022/12/27 09:18:50;;;;;;;1.27;1.25;;;;;;;;;;5040996;28;20119;-77
2022/12/27 09:21:16;;;;;;;2.30;1.55;;;;;;;;;;5046211;28;20540;-78
2022/12/27 09:23:42;;;;;;;3.38;1.20;;;;;;;;;;5045179;28;20036;-77
2022/12/27 09:26:10;;;;;;;1.50;1.40;;;;;;;;;;5042439;28;20041;-77
2022/12/27 09:28:37;;;;;;;1.75;1.33;;;;;;;;;;5043181;28;20105;-77
2022/12/27 09:31:03;;;;;;;1.65;1.30;;;;;;;;;;5042224;28;20116;-77
2022/12/27 09:33:29;;;;;;;2.00;1.42;;;;;;;;;;5044936;28;20112;-77
2022/12/27 09:36:03;;;;;;;3.53;1.33;;;;;;;;;;5043076;28;20024;-77
2022/12/27 09:38:29;;;;;;;1.35;1.30;;;;;;;;;;5045552;28;20645;-78
2022/12/27 09:40:56;;;;;;;1.60;1.40;;;;;;;;;;5044815;28;20033;-78
2022/12/27 09:43:27;;;;;;;2.75;2.15;;;;;;;;;;5048188;28;20434;-78
2022/12/27 09:45:56;;;;;;;4.68;2.58;;;;;;;;;;5043187;28;20472;-78
2022/12/27 09:48:22;;;;;;;5.20;3.65;;;;;;;;;;5041726;28;20034;-78
2022/12/27 09:50:54;;;;;;;20.15;10.70;;;;;;;;;;5045321;28;20083;-77
2022/12/27 09:53:26;;;;;;;74.55;35.80;;;;;;;;;;5044237;28;20025;-77
2022/12/27 09:55:53;;;;;;;42.65;25.65;;;;;;;;;;5033386;28;20056;-78
2022/12/27 09:58:38;;;;;;;32.35;20.70;;;;;;;;;;5039915;28;20033;-78
2022/12/27 10:01:16;;;;;;;24.55;15.93;;;;;;;;;;5040545;28;20071;-78
2022/12/27 10:03:42;;;;;;;9.70;7.00;;;;;;;;;;5044361;28;20386;-78
2022/12/27 10:06:28;;;;;;;7.18;3.78;;;;;;;;;;5048840;28;20033;-78
2022/12/27 10:08:55;;;;;;;2.90;2.30;;;;;;;;;;5035535;28;20041;-78
2022/12/27 10:11:35;;;;;;;3.05;1.55;;;;;;;;;;5046502;28;20021;-78
2022/12/27 10:14:06;;;;;;;4.22;1.85;;;;;;;;;;5040959;28;20026;-78
2022/12/27 10:16:36;;;;;;;1.40;1.30;;;;;;;;;;5049693;28;20100;-77
2022/12/27 10:19:18;;;;;;;1.48;1.38;;;;;;;;;;5050118;28;20546;-80
2022/12/27 10:21:54;;;;;;;1.42;1.33;;;;;;;;;;5037154;28;20133;-78
2022/12/27 10:24:22;;;;;;;1.50;1.30;;;;;;;;;;5047203;28;20098;-78
2022/12/27 10:26:48;;;;;;;1.90;1.40;;;;;;;;;;5047021;28;20041;-78
2022/12/27 10:29:22;;;;;;;3.35;2.42;;;;;;;;;;5042355;28;20031;-77
2022/12/27 10:31:49;;;;;;;9.38;8.05;;;;;;;;;;5046951;28;20514;-77
2022/12/27 10:34:22;;;;;;;3.22;2.78;;;;;;;;;;5039573;28;20029;-78
2022/12/27 10:36:49;;;;;;;1.83;1.73;;;;;;;;;;5046339;28;20067;-78
2022/12/27 10:39:19;;;;;;;1.77;1.55;;;;;;;;;;5047936;28;20039;-78
2022/12/27 10:42:04;;;;;;;4.65;2.58;;;;;;;;;;5042205;28;20084;-78
2022/12/27 10:44:30;;;;;;;1.60;1.50;;;;;;;;;;5044840;28;20464;-77
2022/12/27 10:46:56;;;;;;;2.90;1.63;;;;;;;;;;5038066;28;20029;-78
2022/12/27 10:49:24;;;;;;;1.67;1.58;;;;;;;;;;5045044;28;20077;-79
2022/12/27 10:51:51;;;;;;;2.28;1.90;;;;;;;;;;5040601;28;20160;-78
2022/12/27 10:54:28;;;;;;;2.53;1.90;;;;;;;;;;5042601;28;20542;-79
2022/12/27 10:56:55;;;;;;;3.15;2.20;;;;;;;;;;5042900;28;20059;-78
2022/12/27 10:59:26;;;;;;;3.30;2.20;;;;;;;;;;5033937;28;20030;-78
2022/12/27 11:02:00;;;;;;;1.98;1.48;;;;;;;;;;5037953;28;20079;-78
2022/12/27 11:04:27;;;;;;;2.40;1.80;;;;;;;;;;5037367;28;20044;-78
2022/12/27 11:07:00;;;;;;;2.60;1.90;;;;;;;;;;5037905;28;20029;-80
2022/12/27 11:09:28;;;;;;;2.45;2.25;;;;;;;;;;5038856;28;20380;-77
2022/12/27 11:12:15;;;;;;;3.83;2.05;;;;;;;;;;5038082;28;20495;-78
2022/12/27 11:14:53;;;;;;;3.40;2.58;;;;;;;;;;5034395;28;20029;-78
2022/12/27 11:17:20;;;;;;;3.13;2.30;;;;;;;;;;5043398;28;20048;-78
2022/12/27 11:19:47;;;;;;;1.58;1.48;;;;;;;;;;5037212;28;20099;-78
2022/12/27 11:22:13;;;;;;;2.92;1.70;;;;;;;;;;5037050;28;20051;-78
2022/12/27 11:24:46;;;;;;;1.67;1.42;;;;;;;;;;5035424;28;20033;-78
2022/12/27 11:27:26;;;;;;;1.10;1.10;;;;;;;;;;5047779;28;20099;-78
2022/12/27 11:29:53;;;;;;;2.67;1.42;;;;;;;;;;5046257;28;20025;-78
2022/12/27 11:32:22;;;;;;;2.10;1.90;;;;;;;;;;5045604;28;20423;-78
2022/12/27 11:34:48;;;;;;;1.75;1.55;;;;;;;;;;5048436;28;20024;-78
2022/12/27 11:37:16;;;;;;;2.00;1.80;;;;;;;;;;5049659;28;20040;-77
2022/12/27 11:39:45;;;;;;;3.17;1.92;;;;;;;;;;5049763;28;20045;-79
2022/12/27 11:42:11;;;;;;;1.40;1.30;;;;;;;;;;5048994;28;20135;-79
2022/12/27 11:44:40;;;;;;;1.10;1.10;;;;;;;;;;5049601;28;20033;-78
2022/12/27 11:47:11;;;;;;;1.35;1.25;;;;;;;;;;5048666;28;20029;-78
2022/12/27 11:49:39;;;;;;;3.13;1.60;;;;;;;;;;5043482;28;20033;-77
2022/12/27 11:52:21;;;;;;;1.90;1.30;;;;;;;;;;5048184;28;20367;-78
2022/12/27 11:54:53;;;;;;;1.40;1.30;;;;;;;;;;5045057;28;20095;-78
2022/12/27 11:57:38;;;;;;;2.90;1.60;;;;;;;;;;5042594;28;20021;-78
2022/12/27 12:00:30;;;;;;;1.60;1.50;;;;;;;;;;5046532;28;20049;-78
2022/12/27 12:03:00;;;;;;;2.05;1.38;;;;;;;;;;5046557;28;20041;-77
2022/12/27 12:05:36;;;;;;;2.20;1.70;;;;;;;;;;5048865;28;20487;-80
2022/12/27 12:08:02;;;;;;;1.55;1.45;;;;;;;;;;5051093;28;20352;-78
2022/12/27 12:10:31;;;;;;;1.33;1.33;;;;;;;;;;5051949;28;20464;-78
2022/12/27 12:13:16;;;;;;;1.67;1.50;;;;;;;;;;5048897;28;20132;-79
2022/12/27 12:16:00;;;;;;;2.25;1.50;;;;;;;;;;5047404;28;20047;-78
2022/12/27 12:18:45;;;;;;;1.60;1.50;;;;;;;;;;5045073;28;20101;-78
2022/12/27 12:21:29;;;;;;;1.33;1.23;;;;;;;;;;5046192;28;20419;-77
2022/12/27 12:24:05;;;;;;;1.30;1.30;;;;;;;;;;5049620;28;20045;-79
2022/12/27 12:26:43;;;;;;;1.80;1.40;;;;;;;;;;5050982;28;20095;-79
2022/12/27 12:29:28;;;;;;;1.90;1.80;;;;;;;;;;5040138;28;20491;-78
2022/12/27 12:32:13;;;;;;;2.78;1.70;;;;;;;;;;5044289;28;20038;-80
2022/12/27 12:34:59;;;;;;;1.60;1.50;;;;;;;;;;5049114;28;20029;-77
2022/12/27 12:37:25;;;;;;;2.70;1.85;;;;;;;;;;5043221;28;20322;-78
2022/12/27 12:40:03;;;;;;;2.28;2.08;;;;;;;;;;5048623;28;20384;-76
2022/12/27 12:42:47;;;;;;;1.70;1.60;;;;;;;;;;5056073;28;20378;-78
2022/12/27 12:45:16;;;;;;;1.70;1.60;;;;;;;;;;5054108;28;20025;-77
2022/12/27 12:47:57;;;;;;;1.70;1.60;;;;;;;;;;5047025;28;20261;-77
2022/12/27 12:50:29;;;;;;;2.20;2.00;;;;;;;;;;5047469;28;20021;-79
2022/12/27 12:53:16;;;;;;;3.65;2.38;;;;;;;;;;5047433;28;20029;-79
2022/12/27 12:55:49;;;;;;;2.30;2.00;;;;;;;;;;5007081;28;20065;-77
2022/12/27 12:58:35;;;;;;;2.08;1.88;;;;;;;;;;5049234;28;20416;-79
2022/12/27 13:01:12;;;;;;;3.65;1.80;;;;;;;;;;5047866;28;20040;-78
2022/12/27 13:03:39;;;;;;;2.88;1.92;;;;;;;;;;5046569;28;20390;-77
2022/12/27 13:06:13;;;;;;;2.75;2.05;;;;;;;;;;5042503;28;20075;-78
2022/12/27 13:08:42;;;;;;;3.45;1.98;;;;;;;;;;5046016;28;20392;-77
2022/12/27 13:11:19;;;;;;;3.60;1.80;;;;;;;;;;5045097;28;20073;-76
2022/12/27 13:13:49;;;;;;;5.88;3.05;;;;;;;;;;5042806;28;20028;-78
2022/12/27 13:16:33;;;;;;;2.40;1.90;;;;;;;;;;5049155;28;20108;-78
2022/12/27 13:19:06;;;;;;;5.35;4.45;;;;;;;;;;5042817;28;20410;-78
2022/12/27 13:21:41;;;;;;;2.38;2.17;;;;;;;;;;5046968;28;20029;-78
2022/12/27 13:24:10;;;;;;;7.97;4.57;;;;;;;;;;5041032;28;20244;-78
2022/12/27 13:26:39;;;;;;;4.57;3.75;;;;;;;;;;5051730;28;20041;-77
2022/12/27 13:29:05;;;;;;;3.95;2.35;;;;;;;;;;5044468;28;20116;-78
2022/12/27 13:31:38;;;;;;;2.40;2.10;;;;;;;;;;5045544;28;20028;-79
2022/12/27 13:34:13;;;;;;;2.67;2.22;;;;;;;;;;5046752;28;20482;-78
2022/12/27 13:36:57;;;;;;;4.57;2.40;;;;;;;;;;5048469;28;20489;-78
2022/12/27 13:39:26;;;;;;;4.25;2.40;;;;;;;;;;5041937;28;20044;-78
2022/12/27 13:42:07;;;;;;;2.30;2.10;;;;;;;;;;5043489;28;20498;-77
2022/12/27 13:44:39;;;;;;;5.32;2.88;;;;;;;;;;5042443;28;20025;-78
2022/12/27 13:47:05;;;;;;;3.33;2.55;;;;;;;;;;5044236;28;20029;-78
2022/12/27 13:49:40;;;;;;;6.60;3.75;;;;;;;;;;5047891;28;20033;-79
2022/12/27 13:52:14;;;;;;;4.60;3.30;;;;;;;;;;5054873;28;20030;-78
2022/12/27 13:55:07;;;;;;;4.30;2.53;;;;;;;;;;5040440;28;20151;-80
2022/12/27 13:57:51;;;;;;;4.68;3.13;;;;;;;;;;5040768;28;20051;-78
2022/12/27 14:00:21;;;;;;;7.38;4.88;;;;;;;;;;5046931;28;20017;-78
2022/12/27 14:03:00;;;;;;;7.13;4.63;;;;;;;;;;5031205;28;20109;-78
2022/12/27 14:05:45;;;;;;;20.52;8.40;;;;;;;;;;5040889;28;20517;-78
2022/12/27 14:08:11;;;;;;;13.27;6.25;;;;;;;;;;5043941;28;20027;-79
2022/12/27 14:10:43;;;;;;;4.97;2.97;;;;;;;;;;5046594;28;20035;-78
2022/12/27 14:13:10;;;;;;;16.85;6.95;;;;;;;;;;5047893;28;20021;-78
2022/12/27 14:15:36;;;;;;;9.65;4.20;;;;;;;;;;5049466;28;20032;-78
2022/12/27 14:18:21;;;;;;;7.22;3.78;;;;;;;;;;5050088;28;20040;-77
2022/12/27 14:20:55;;;;;;;15.18;4.72;;;;;;;;;;5031758;28;20484;-78
2022/12/27 14:23:38;;;;;;;11.73;4.78;;;;;;;;;;5043579;28;20036;-78
2022/12/27 14:26:04;;;;;;;10.43;3.83;;;;;;;;;;5045875;28;20037;-78
2022/12/27 14:28:47;;;;;;;11.20;3.88;;;;;;;;;;5051060;28;20032;-77
2022/12/27 14:31:13;;;;;;;7.30;3.35;;;;;;;;;;5047848;28;20048;-78
2022/12/27 14:33:57;;;;;;;15.43;4.22;;;;;;;;;;5047067;28;20490;-78
2022/12/27 14:36:26;;;;;;;11.07;4.03;;;;;;;;;;5050994;28;20483;-78
2022/12/27 14:39:08;;;;;;;10.80;3.65;;;;;;;;;;5049033;28;20032;-77
2022/12/27 14:41:53;;;;;;;10.13;3.97;;;;;;;;;;5042253;28;20061;-78
2022/12/27 14:44:51;;;;;;;10.60;3.28;;;;;;;;;;5037796;28;20083;-77
2022/12/27 14:47:35;;;;;;;8.75;4.22;;;;;;;;;;5033729;28;20727;-78
2022/12/27 14:50:14;;;;;;;5.60;3.08;;;;;;;;;;5047947;28;20055;-79
2022/12/27 14:52:53;;;;;;;8.43;3.33;;;;;;;;;;5045520;28;20032;-78
2022/12/27 14:55:51;;;;;;;8.48;2.90;;;;;;;;;;5037861;28;20043;-78
2022/12/27 14:58:31;;;;;;;9.95;3.63;;;;;;;;;;5021892;28;20605;-79
2022/12/27 15:01:16;;;;;;;10.43;4.05;;;;;;;;;;5047028;28;20043;-79
2022/12/27 15:03:42;;;;;;;18.23;4.50;;;;;;;;;;5040954;28;20021;-78
2022/12/27 15:06:20;;;;;;;13.05;4.95;;;;;;;;;;5044298;28;20096;-78
2022/12/27 15:08:59;;;;;;;8.40;3.95;;;;;;;;;;5046695;28;20024;-78
2022/12/27 15:11:34;;;;;;;12.70;4.72;;;;;;;;;;5038063;28;20119;-77
2022/12/27 15:14:14;;;;;;;8.18;3.30;;;;;;;;;;5042944;28;20376;-77
2022/12/27 15:16:55;;;;;;;8.32;3.60;;;;;;;;;;5040442;28;20025;-79
2022/12/27 15:19:24;;;;;;;11.10;5.07;;;;;;;;;;5048744;28;20029;-78
2022/12/27 15:22:00;;;;;;;8.60;3.22;;;;;;;;;;5052171;28;20086;-78
2022/12/27 15:24:26;;;;;;;;;;;;;;;;;;5051164;28;20061;-77
2022/12/27 15:26:52;;;;;;;;;;;;;;;;;;5050948;28;19959;-78
2022/12/27 15:29:24;;;;;;;13.80;4.78;;;;;;;;;;5038862;28;19991;-78
2022/12/27 15:31:57;;;;;;;68.25;38.55;;;;;;;;;;5047778;28;20103;-77
2022/12/27 15:34:42;;;;;;;75.25;36.50;;;;;;;;;;5048102;28;20032;-78
2022/12/27 15:37:43;;;;;;;217.70;119.78;;;;;;;;;;5058427;28;20048;-77
2022/12/27 15:40:27;;;;;;;251.93;146.18;;;;;;;;;;5004633;28;20050;-79
2022/12/27 15:43:19;;;;;;;46.80;32.55;;;;;;;;;;5025560;28;20065;-78
2022/12/27 15:46:05;;;;;;;55.00;36.67;;;;;;;;;;5038211;28;20041;-78
2022/12/27 15:48:47;;;;;;;21.45;14.10;;;;;;;;;;5034771;28;20504;-79
2022/12/27 15:51:32;;;;;;;29.35;15.45;;;;;;;;;;5049032;28;20049;-78
2022/12/27 15:54:04;;;;;;;32.73;19.23;;;;;;;;;;5043414;28;20329;-78
2022/12/27 15:56:35;;;;;;;18.25;10.25;;;;;;;;;;5040572;28;20255;-78
2022/12/27 15:59:20;;;;;;;36.83;21.42;;;;;;;;;;5039554;28;20613;-78
2022/12/27 16:01:47;;;;;;;30.08;17.40;;;;;;;;;;5043547;28;20075;-79
2022/12/27 16:04:32;;;;;;;34.40;19.92;;;;;;;;;;5050255;28;20021;-79
2022/12/27 16:06:58;;;;;;;51.85;31.42;;;;;;;;;;5048883;28;20056;-78
2022/12/27 16:09:24;;;;;;;21.13;9.68;;;;;;;;;;5050802;28;20434;-79
2022/12/27 16:11:59;;;;;;;19.00;8.55;;;;;;;;;;5043708;28;20025;-78
2022/12/27 16:14:30;;;;;;;30.30;16.95;;;;;;;;;;5047688;28;20019;-78
2022/12/27 16:17:02;;;;;;;28.48;22.88;;;;;;;;;;5032856;28;20025;-78
2022/12/27 16:19:28;;;;;;;15.10;6.78;;;;;;;;;;5062889;28;20857;-79
2022/12/27 16:21:54;;;;;;;10.13;7.35;;;;;;;;;;5053612;28;20128;-79
2022/12/27 16:24:23;;;;;;;16.17;8.82;;;;;;;;;;5049757;28;20013;-78
2022/12/27 16:26:51;;;;;;;16.08;8.82;;;;;;;;;;5047392;28;20036;-78
2022/12/27 16:29:17;;;;;;;18.35;9.88;;;;;;;;;;5048765;28;20017;-77
2022/12/27 16:31:51;;;;;;;8.45;5.38;;;;;;;;;;5057745;28;20026;-78
2022/12/27 16:34:19;;;;;;;;;;;;;;;;;;5063510;28;20079;-78
2022/12/27 16:36:49;;;;;;;14.57;6.35;;;;;;;;;;5049901;28;20318;-79